Time;durP1;ratioP1;P1;durP2;ratioP2;P2;SDS_P1;SDS_P2;PMS_P1;PMS_P2;Temp;Humidity;BMP_temperature;BMP_pressure;BME280_temperature;BME280_humidity;BME280_pressure;Samples;Min_cycle;Max_cycle;Signal;HPM_P1;HPM_P2
2022/04/04 00:00:55;;;;;;;4.32;2.08;;;3.70;99.90;;;;;;5091082;28;20078;-78
2022/04/04 00:03:20;;;;;;;7.00;2.63;;;3.70;99.90;;;;;;5109171;28;20112;-77
2022/04/04 00:05:47;;;;;;;5.82;2.15;;;3.70;99.90;;;;;;5127093;28;20112;-78
2022/04/04 00:08:14;;;;;;;5.57;2.35;;;3.70;99.90;;;;;;5091377;28;20135;-78
2022/04/04 00:10:40;;;;;;;7.15;2.35;;;3.70;99.90;;;;;;5127436;28;20035;-78
2022/04/04 00:13:06;;;;;;;4.93;1.75;;;4.90;99.90;;;;;;5128151;27;20036;-78
2022/04/04 00:15:32;;;;;;;2.80;1.73;;;3.70;99.90;;;;;;5130924;27;20117;-78
2022/04/04 00:18:08;;;;;;;5.63;2.10;;;3.70;99.90;;;;;;5130347;27;20117;-78
2022/04/04 00:20:34;;;;;;;2.22;1.33;;;3.70;99.90;;;;;;5113088;27;20047;-79
2022/04/04 00:23:00;;;;;;;3.30;1.70;;;3.70;99.90;;;;;;5130498;27;20063;-78
2022/04/04 00:25:26;;;;;;;6.18;2.75;;;3.70;99.90;;;;;;5130479;27;20063;-79
2022/04/04 00:27:52;;;;;;;5.05;1.80;;;3.70;99.90;;;;;;5131210;27;20035;-78
2022/04/04 00:30:18;;;;;;;3.10;1.63;;;3.70;99.90;;;;;;5111253;27;20054;-78
2022/04/04 00:32:44;;;;;;;4.80;1.98;;;3.70;99.90;;;;;;5112551;27;20402;-78
2022/04/04 00:35:10;;;;;;;4.10;1.90;;;4.50;99.90;;;;;;5110810;27;20051;-78
2022/04/04 00:37:39;;;;;;;4.53;1.70;;;5.10;99.90;;;;;;5130733;27;20043;-78
2022/04/04 00:40:06;;;;;;;6.13;2.00;;;4.90;99.90;;;;;;5130113;27;20042;-78
2022/04/04 00:42:32;;;;;;;3.55;1.52;;;3.80;99.90;;;;;;5129452;27;20038;-78
2022/04/04 00:44:59;;;;;;;5.20;2.10;;;3.80;99.90;;;;;;5130703;27;20042;-78
2022/04/04 00:47:25;;;;;;;2.88;1.50;;;3.80;99.90;;;;;;5129405;27;20051;-78
2022/04/04 00:49:51;;;;;;;2.72;1.55;;;3.80;99.90;;;;;;5130746;27;20040;-78
2022/04/04 00:52:17;;;;;;;2.97;1.65;;;3.80;99.90;;;;;;5110845;27;20077;-78
2022/04/04 00:54:45;;;;;;;5.47;2.22;;;3.80;99.90;;;;;;5130330;27;20483;-79
2022/04/04 00:57:10;;;;;;;7.90;2.40;;;3.90;99.90;;;;;;5111263;27;20051;-79
2022/04/04 00:59:37;;;;;;;2.95;1.58;;;3.80;99.90;;;;;;5110988;27;20076;-79
2022/04/04 01:02:04;;;;;;;6.22;2.05;;;3.80;99.90;;;;;;5095117;27;20081;-79
2022/04/04 01:04:29;;;;;;;6.57;2.08;;;3.80;99.90;;;;;;5110881;27;20067;-79
2022/04/04 01:06:55;;;;;;;2.25;1.70;;;3.90;99.90;;;;;;5111612;27;20926;-79
2022/04/04 01:09:21;;;;;;;6.93;2.58;;;3.90;99.90;;;;;;5093740;27;20043;-78
2022/04/04 01:12:07;;;;;;;4.05;2.45;;;3.90;99.90;;;;;;5094304;27;20496;-79
2022/04/04 01:14:48;;;;;;;6.53;2.33;;;3.90;99.90;;;;;;5129875;27;20124;-79
2022/04/04 01:17:19;;;;;;;4.05;2.60;;;4.00;99.90;;;;;;5110518;27;20158;-78
2022/04/04 01:19:45;;;;;;;5.35;2.60;;;5.30;99.90;;;;;;5111325;27;20050;-79
2022/04/04 01:22:13;;;;;;;9.13;3.08;;;4.00;99.90;;;;;;5128943;27;20114;-79
2022/04/04 01:24:39;;;;;;;8.60;3.53;;;4.00;99.90;;;;;;5129212;27;20043;-79
2022/04/04 01:27:07;;;;;;;5.78;3.00;;;4.10;99.90;;;;;;5129390;27;20063;-79
2022/04/04 01:29:34;;;;;;;6.22;3.80;;;4.10;99.90;;;;;;5129065;27;20386;-79
2022/04/04 01:32:00;;;;;;;6.28;3.33;;;4.10;99.90;;;;;;5111314;27;20407;-79
2022/04/04 01:34:26;;;;;;;8.65;3.97;;;4.10;99.90;;;;;;5128208;27;20528;-79
2022/04/04 01:36:52;;;;;;;6.95;3.10;;;4.20;99.90;;;;;;5111250;27;20096;-79
2022/04/04 01:39:19;;;;;;;5.18;3.25;;;4.20;99.90;;;;;;5109799;27;20047;-79
2022/04/04 01:41:45;;;;;;;6.35;4.13;;;4.20;99.90;;;;;;5129391;27;20088;-79
2022/04/04 01:44:11;;;;;;;5.57;4.05;;;4.20;99.90;;;;;;5110126;27;20075;-79
2022/04/04 01:46:37;;;;;;;8.02;4.22;;;4.20;99.90;;;;;;5128570;27;20082;-79
2022/04/04 01:49:04;;;;;;;9.05;4.78;;;4.30;99.90;;;;;;5110739;27;20068;-79
2022/04/04 01:51:31;;;;;;;12.15;5.00;;;4.30;99.90;;;;;;5108908;27;20035;-79
2022/04/04 01:54:01;;;;;;;12.48;5.47;;;4.30;99.90;;;;;;5129172;27;20039;-79
2022/04/04 01:56:28;;;;;;;9.02;5.45;;;5.80;99.90;;;;;;5109831;27;20456;-79
2022/04/04 01:58:54;;;;;;;12.13;5.40;;;4.40;99.90;;;;;;5110650;27;20043;-79
2022/04/04 02:01:22;;;;;;;12.07;5.88;;;4.40;99.90;;;;;;5128598;27;20032;-79
2022/04/04 02:03:53;;;;;;;10.18;6.38;;;5.80;99.90;;;;;;5092629;27;20590;-79
2022/04/04 02:06:19;;;;;;;9.85;6.78;;;4.50;99.90;;;;;;5110447;27;20050;-79
2022/04/04 02:08:45;;;;;;;8.98;6.05;;;4.50;99.90;;;;;;5109166;27;20113;-79
2022/04/04 02:11:13;;;;;;;16.60;7.18;;;5.00;99.90;;;;;;5110618;28;20397;-79
2022/04/04 02:13:39;;;;;;;9.95;6.50;;;4.50;99.90;;;;;;5109258;27;20047;-79
2022/04/04 02:16:05;;;;;;;15.65;7.22;;;4.50;99.90;;;;;;5128555;27;20070;-79
2022/04/04 02:18:32;;;;;;;14.80;8.07;;;4.50;99.90;;;;;;5128851;27;20035;-79
2022/04/04 02:20:59;;;;;;;11.73;7.20;;;4.50;99.90;;;;;;5127627;27;20047;-79
2022/04/04 02:23:25;;;;;;;9.90;7.32;;;5.30;99.90;;;;;;5128854;27;20110;-78
2022/04/04 02:25:52;;;;;;;11.50;7.38;;;4.60;99.90;;;;;;5127392;27;20494;-79
2022/04/04 02:28:18;;;;;;;15.63;8.15;;;4.60;99.90;;;;;;5128540;27;20078;-78
2022/04/04 02:30:46;;;;;;;11.95;7.20;;;4.60;99.90;;;;;;5127637;27;20050;-79
2022/04/04 02:33:12;;;;;;;16.02;7.53;;;4.60;99.90;;;;;;5109868;27;20046;-79
2022/04/04 02:35:39;;;;;;;11.07;7.72;;;4.60;99.90;;;;;;5128028;27;20043;-79
2022/04/04 02:38:05;;;;;;;17.05;7.82;;;4.60;99.90;;;;;;5127389;27;20054;-79
2022/04/04 02:40:32;;;;;;;13.20;6.72;;;4.60;99.90;;;;;;5128630;27;20069;-78
2022/04/04 02:42:58;;;;;;;11.55;6.38;;;4.60;99.90;;;;;;5091751;28;20035;-79
2022/04/04 02:45:24;;;;;;;14.45;7.82;;;4.60;99.90;;;;;;5092737;27;20047;-79
2022/04/04 02:47:50;;;;;;;12.63;7.38;;;4.60;99.90;;;;;;5108629;28;20047;-79
2022/04/04 02:50:16;;;;;;;11.38;7.35;;;4.60;99.90;;;;;;5109939;27;20061;-79
2022/04/04 02:52:43;;;;;;;12.32;7.40;;;4.60;99.90;;;;;;5092306;27;20058;-79
2022/04/04 02:57:55;;;;;;;12.73;7.18;;;4.60;99.90;;;;;;5128489;27;20050;-79
2022/04/04 03:00:23;;;;;;;10.70;7.43;;;4.70;99.90;;;;;;5091923;28;20481;-79
2022/04/04 03:02:50;;;;;;;11.30;6.95;;;4.70;99.90;;;;;;5128132;27;20043;-79
2022/04/04 03:05:16;;;;;;;16.50;8.00;;;6.00;99.90;;;;;;5127889;28;20042;-79
2022/04/04 03:07:42;;;;;;;14.15;8.13;;;6.00;99.90;;;;;;5108906;28;20039;-79
2022/04/04 03:10:09;;;;;;;9.90;7.28;;;4.70;99.90;;;;;;5127815;28;20039;-79
2022/04/04 03:12:49;;;;;;;14.98;7.78;;;4.70;99.90;;;;;;5108397;28;20118;-79
2022/04/04 03:15:18;;;;;;;11.27;7.63;;;5.90;99.90;;;;;;5128198;28;20430;-79
2022/04/04 03:17:45;;;;;;;14.77;7.88;;;4.80;99.90;;;;;;5127269;28;20122;-79
2022/04/04 03:20:12;;;;;;;11.27;7.63;;;4.80;99.90;;;;;;5127581;28;20116;-79
2022/04/04 03:22:43;;;;;;;11.02;8.32;;;4.80;99.90;;;;;;5091815;28;20039;-79
2022/04/04 03:25:11;;;;;;;12.43;7.65;;;4.90;99.90;;;;;;5108571;28;20039;-78
2022/04/04 03:27:37;;;;;;;18.00;8.70;;;4.90;99.90;;;;;;5127526;28;20510;-79
2022/04/04 03:30:09;;;;;;;12.57;7.55;;;4.90;99.90;;;;;;5126919;28;20043;-78
2022/04/04 03:32:35;;;;;;;11.13;7.47;;;5.70;99.90;;;;;;5092189;28;20058;-78
2022/04/04 03:35:02;;;;;;;15.70;8.80;;;5.00;99.90;;;;;;5108665;28;20047;-79
2022/04/04 03:37:28;;;;;;;13.18;7.72;;;5.00;99.90;;;;;;5127183;28;20482;-79
2022/04/04 03:39:53;;;;;;;10.85;7.20;;;6.10;99.90;;;;;;5109203;28;20107;-79
2022/04/04 03:42:20;;;;;;;13.75;8.45;;;5.00;99.90;;;;;;5126944;28;20333;-78
2022/04/04 03:44:46;;;;;;;17.23;7.70;;;5.90;99.90;;;;;;5127896;28;20134;-79
2022/04/04 03:47:12;;;;;;;16.67;8.85;;;5.00;99.90;;;;;;5128918;27;20039;-79
2022/04/04 03:49:38;;;;;;;15.63;7.82;;;5.10;99.90;;;;;;5113249;27;20463;-79
2022/04/04 03:52:05;;;;;;;15.27;8.25;;;5.00;99.90;;;;;;5130671;27;20082;-79
2022/04/04 03:54:32;;;;;;;16.77;9.20;;;5.10;99.90;;;;;;5112849;27;20454;-79
2022/04/04 03:56:57;;;;;;;15.32;8.00;;;5.10;99.90;;;;;;5131674;27;20054;-80
2022/04/04 03:59:24;;;;;;;23.23;9.75;;;5.10;99.90;;;;;;5112353;27;20394;-80
2022/04/04 04:01:49;;;;;;;15.38;8.23;;;5.10;99.90;;;;;;5131775;27;20035;-79
2022/04/04 04:04:16;;;;;;;18.17;9.60;;;5.00;99.90;;;;;;5094601;27;20530;-79
2022/04/04 04:06:41;;;;;;;14.57;8.55;;;5.10;99.90;;;;;;5131637;27;20047;-80
2022/04/04 04:09:07;;;;;;;20.75;9.15;;;5.00;99.90;;;;;;5111914;27;20049;-80
2022/04/04 04:11:33;;;;;;;15.63;9.00;;;5.10;99.90;;;;;;5131262;27;20039;-79
2022/04/04 04:14:00;;;;;;;15.18;8.55;;;5.10;99.90;;;;;;5131218;27;20461;-80
2022/04/04 04:16:26;;;;;;;13.35;9.60;;;5.00;99.90;;;;;;5112111;27;20112;-79
2022/04/04 04:18:52;;;;;;;12.73;8.27;;;5.10;99.90;;;;;;5131386;27;20115;-80
2022/04/04 04:21:19;;;;;;;14.55;9.10;;;5.00;99.90;;;;;;5129942;27;20043;-79
2022/04/04 04:23:45;;;;;;;15.23;8.32;;;5.30;99.90;;;;;;5131163;27;20043;-79
2022/04/04 04:26:13;;;;;;;15.60;9.63;;;5.10;99.90;;;;;;5112591;27;20093;-81
2022/04/04 04:28:43;;;;;;;16.55;9.07;;;5.10;99.90;;;;;;5112232;27;20126;-79
2022/04/04 04:31:09;;;;;;;18.25;9.77;;;5.10;99.90;;;;;;5112374;27;20047;-80
2022/04/04 04:33:35;;;;;;;17.02;9.40;;;5.10;99.90;;;;;;5111449;27;20485;-80
2022/04/04 04:36:00;;;;;;;23.67;10.07;;;5.10;99.90;;;;;;5130970;27;20130;-79
2022/04/04 04:38:27;;;;;;;13.65;9.32;;;5.10;99.90;;;;;;5129871;27;20091;-78
2022/04/04 04:40:53;;;;;;;21.00;10.48;;;5.10;99.90;;;;;;5112785;27;20042;-81
2022/04/04 04:43:19;;;;;;;18.15;10.00;;;5.10;99.90;;;;;;5130404;27;20039;-81
2022/04/04 04:45:45;;;;;;;21.60;10.10;;;5.20;99.90;;;;;;5130477;27;20039;-80
2022/04/04 04:48:11;;;;;;;17.55;10.00;;;5.20;99.90;;;;;;5112008;27;20406;-80
2022/04/04 04:50:37;;;;;;;20.73;9.57;;;5.20;99.90;;;;;;5110712;27;20050;-79
2022/04/04 04:53:03;;;;;;;15.35;9.18;;;5.20;99.90;;;;;;5078186;27;20054;-80
2022/04/04 04:55:30;;;;;;;14.88;9.93;;;5.20;99.90;;;;;;5093690;27;20517;-80
2022/04/04 04:57:56;;;;;;;19.88;9.80;;;5.30;99.90;;;;;;5130049;27;20058;-81
2022/04/04 05:00:26;;;;;;;15.23;9.15;;;5.80;99.90;;;;;;5129955;27;20035;-81
2022/04/04 05:03:24;;;;;;;17.38;8.73;;;5.20;99.90;;;;;;5111944;27;20589;-82
2022/04/04 05:05:39;;;;;;;16.83;7.93;;;5.20;99.90;;;;;;5130227;27;20407;-81
2022/04/04 05:08:05;;;;;;;19.92;8.63;;;5.30;99.90;;;;;;5128818;27;20042;-81
2022/04/04 05:10:31;;;;;;;14.80;7.65;;;5.30;99.90;;;;;;5111430;27;20047;-80
2022/04/04 05:12:57;;;;;;;19.25;9.20;;;5.30;99.90;;;;;;5110896;27;20038;-81
2022/04/04 05:15:23;;;;;;;19.75;7.70;;;5.50;99.90;;;;;;5094571;27;20116;-82
2022/04/04 05:17:50;;;;;;;12.10;8.27;;;5.20;99.90;;;;;;5110498;27;20043;-81
2022/04/04 05:20:15;;;;;;;13.70;7.30;;;5.30;99.90;;;;;;5093307;27;20078;-79
2022/04/04 05:22:41;;;;;;;13.18;7.82;;;5.30;99.90;;;;;;5093827;27;20089;-81
2022/04/04 05:25:07;;;;;;;11.25;6.95;;;5.30;99.90;;;;;;5128337;27;20046;-81
2022/04/04 05:27:33;;;;;;;14.65;7.60;;;5.30;99.90;;;;;;5110912;27;20047;-80
2022/04/04 05:29:59;;;;;;;14.57;6.53;;;5.30;99.90;;;;;;5128934;27;20107;-81
2022/04/04 05:32:25;;;;;;;9.90;5.38;;;5.30;99.90;;;;;;5111343;27;20047;-80
2022/04/04 05:34:50;;;;;;;9.68;5.72;;;5.30;99.90;;;;;;5076717;27;20043;-80
2022/04/04 05:37:16;;;;;;;12.73;5.80;;;5.30;99.90;;;;;;5129125;27;20055;-81
2022/04/04 05:39:42;;;;;;;12.55;5.25;;;5.30;99.90;;;;;;5130105;27;20051;-81
2022/04/04 05:42:07;;;;;;;15.65;6.00;;;5.30;99.90;;;;;;5109609;27;20047;-81
2022/04/04 05:44:33;;;;;;;9.98;5.32;;;5.30;99.90;;;;;;5094262;27;20440;-81
2022/04/04 05:46:59;;;;;;;13.10;5.90;;;5.30;99.90;;;;;;5128177;27;20438;-81
2022/04/04 05:49:25;;;;;;;13.98;5.57;;;6.40;99.90;;;;;;5129345;27;20043;-81
2022/04/04 05:51:51;;;;;;;10.13;5.00;;;6.30;99.90;;;;;;5128491;27;20621;-82
2022/04/04 05:54:17;;;;;;;14.38;5.28;;;5.40;99.90;;;;;;5110587;27;20122;-82
2022/04/04 05:56:46;;;;;;;7.10;4.32;;;5.30;99.90;;;;;;5093630;27;20035;-80
2022/04/04 05:59:15;;;;;;;8.55;5.18;;;6.60;99.90;;;;;;5109677;27;20138;-79
2022/04/04 06:01:41;;;;;;;6.53;3.55;;;5.30;99.90;;;;;;5129295;27;20493;-78
2022/04/04 06:04:07;;;;;;;9.15;3.78;;;6.10;99.90;;;;;;5127544;27;20039;-80
2022/04/04 06:06:32;;;;;;;17.25;5.00;;;5.20;99.90;;;;;;5128797;27;20066;-80
2022/04/04 06:08:59;;;;;;;13.02;4.90;;;6.30;99.90;;;;;;5092802;27;20039;-81
2022/04/04 06:11:25;;;;;;;5.25;3.55;;;5.10;99.90;;;;;;5127168;27;20047;-80
2022/04/04 06:13:51;;;;;;;9.98;3.47;;;5.10;99.90;;;;;;5128674;27;20039;-81
2022/04/04 06:16:17;;;;;;;6.25;2.72;;;5.90;99.90;;;;;;5108630;27;20053;-79
2022/04/04 06:18:43;;;;;;;5.80;2.25;;;6.50;99.90;;;;;;5128637;27;20453;-80
2022/04/04 06:21:09;;;;;;;5.78;2.80;;;5.10;99.90;;;;;;5076414;27;20043;-81
2022/04/04 06:23:36;;;;;;;10.20;2.47;;;5.90;99.90;;;;;;5110381;27;20035;-81
2022/04/04 06:26:05;;;;;;;4.07;2.03;;;6.10;99.90;;;;;;5109598;27;20116;-81
2022/04/04 06:28:31;;;;;;;5.10;1.98;;;4.90;99.90;;;;;;5127575;27;20559;-81
2022/04/04 06:31:01;;;;;;;3.20;1.60;;;6.40;99.90;;;;;;5128513;27;20047;-81
2022/04/04 06:33:27;;;;;;;6.93;2.03;;;4.90;99.90;;;;;;5108593;27;20039;-82
2022/04/04 06:35:54;;;;;;;8.48;2.30;;;6.00;99.90;;;;;;5128399;27;20047;-80
2022/04/04 06:38:20;;;;;;;4.90;2.50;;;4.90;99.90;;;;;;5127061;27;20035;-81
2022/04/04 06:40:46;;;;;;;5.72;2.17;;;4.90;99.90;;;;;;5092888;27;20042;-81
2022/04/04 06:43:11;;;;;;;7.40;2.05;;;5.90;99.90;;;;;;5127677;27;20092;-81
2022/04/04 06:45:38;;;;;;;2.78;1.70;;;4.90;99.90;;;;;;5109220;28;20524;-81
2022/04/04 06:48:04;;;;;;;4.32;2.20;;;4.90;99.90;;;;;;5128181;27;20054;-81
2022/04/04 06:50:30;;;;;;;8.95;2.42;;;4.90;99.90;;;;;;5127058;27;20031;-79
2022/04/04 06:52:56;;;;;;;4.07;2.17;;;6.20;99.90;;;;;;5127783;27;20051;-81
2022/04/04 06:55:23;;;;;;;5.68;2.10;;;4.90;99.90;;;;;;5108660;28;20276;-81
2022/04/04 06:57:49;;;;;;;6.25;1.95;;;5.00;99.90;;;;;;5128225;27;20074;-81
2022/04/04 07:00:16;;;;;;;6.07;1.85;;;5.00;99.90;;;;;;5127787;27;20078;-81
2022/04/04 07:02:43;;;;;;;6.68;2.30;;;5.00;99.90;;;;;;5108491;28;20061;-81
2022/04/04 07:05:09;;;;;;;3.85;2.30;;;5.00;99.90;;;;;;5109731;28;20043;-80
2022/04/04 07:07:35;;;;;;;5.13;2.40;;;5.00;99.90;;;;;;5108248;28;20051;-81
2022/04/04 07:10:03;;;;;;;9.25;2.42;;;5.10;99.90;;;;;;5110016;28;20035;-81
2022/04/04 07:12:29;;;;;;;7.53;2.92;;;5.10;99.90;;;;;;5126899;28;20110;-82
2022/04/04 07:14:55;;;;;;;8.55;2.72;;;5.10;99.90;;;;;;5128566;28;20103;-81
2022/04/04 07:17:21;;;;;;;5.07;2.50;;;5.30;99.90;;;;;;5108689;28;20043;-81
2022/04/04 07:19:47;;;;;;;4.63;2.83;;;5.90;99.90;;;;;;5109125;28;20043;-82
2022/04/04 07:22:15;;;;;;;8.52;3.45;;;5.10;99.90;;;;;;5129991;27;20095;-82
2022/04/04 07:24:40;;;;;;;5.18;3.58;;;5.20;99.90;;;;;;5130495;27;20043;-81
2022/04/04 07:27:06;;;;;;;7.10;3.40;;;5.40;99.90;;;;;;5131682;27;20092;-82
2022/04/04 07:29:32;;;;;;;6.15;3.88;;;5.30;99.90;;;;;;5130553;27;20126;-82
2022/04/04 07:31:58;;;;;;;5.20;3.80;;;6.70;99.90;;;;;;5131622;27;20035;-81
2022/04/04 07:34:24;;;;;;;9.27;4.10;;;5.40;99.90;;;;;;5131680;27;20423;-82
2022/04/04 07:36:50;;;;;;;7.70;4.15;;;5.40;99.90;;;;;;5131869;27;20122;-82
2022/04/04 07:39:15;;;;;;;12.35;4.30;;;7.00;99.90;;;;;;5113190;27;20035;-82
2022/04/04 07:41:41;;;;;;;7.00;4.28;;;6.70;99.90;;;;;;5130478;27;20047;-83
2022/04/04 07:44:07;;;;;;;7.93;4.00;;;5.40;99.90;;;;;;5131659;27;20482;-82
2022/04/04 07:46:32;;;;;;;11.48;4.35;;;5.50;99.90;;;;;;5111753;27;20460;-82
2022/04/04 07:48:59;;;;;;;6.72;4.05;;;6.30;99.90;;;;;;5131446;27;20524;-83
2022/04/04 07:51:25;;;;;;;6.85;5.28;;;5.50;99.90;;;;;;5111835;27;20043;-82
2022/04/04 07:53:51;;;;;;;8.68;4.65;;;6.80;99.90;;;;;;5131297;27;20073;-83
2022/04/04 07:56:19;;;;;;;7.90;4.47;;;5.90;99.90;;;;;;5112614;27;20537;-83
2022/04/04 07:58:45;;;;;;;6.80;3.80;;;6.80;99.90;;;;;;5130261;27;20085;-83
2022/04/04 08:01:11;;;;;;;8.88;4.40;;;6.40;99.90;;;;;;5131265;27;20070;-81
2022/04/04 08:03:37;;;;;;;10.07;4.10;;;5.70;99.90;;;;;;5094981;27;20050;-81
2022/04/04 08:06:03;;;;;;;7.57;3.60;;;5.80;99.90;;;;;;5130920;27;20039;-82
2022/04/04 08:08:29;;;;;;;6.63;3.90;;;5.80;99.90;;;;;;5111360;27;20089;-82
2022/04/04 08:10:57;;;;;;;7.40;3.75;;;5.80;99.90;;;;;;5112649;27;20053;-82
2022/04/04 08:13:24;;;;;;;7.38;4.00;;;5.90;99.90;;;;;;5131115;27;20220;-82
2022/04/04 08:15:50;;;;;;;8.68;3.63;;;6.60;99.90;;;;;;5094264;27;20047;-82
2022/04/04 08:18:16;;;;;;;6.85;3.13;;;6.90;99.90;;;;;;5130458;27;20039;-82
2022/04/04 08:20:42;;;;;;;9.50;3.60;;;7.40;99.90;;;;;;5110888;27;20435;-82
2022/04/04 08:23:08;;;;;;;8.65;3.90;;;5.90;99.90;;;;;;5130535;27;20652;-82
2022/04/04 08:25:33;;;;;;;4.55;3.20;;;6.40;99.90;;;;;;5129806;27;20039;-81
2022/04/04 08:27:59;;;;;;;4.25;2.90;;;6.00;99.90;;;;;;5094602;27;20103;-81
2022/04/04 08:30:25;;;;;;;6.85;2.78;;;6.00;99.90;;;;;;5130115;27;20043;-81
2022/04/04 08:32:51;;;;;;;5.90;2.88;;;6.00;99.90;;;;;;5128506;27;20040;-82
2022/04/04 08:35:17;;;;;;;5.93;2.67;;;6.10;99.90;;;;;;5130424;27;20050;-82
2022/04/04 08:37:45;;;;;;;4.10;2.75;;;6.10;99.90;;;;;;5111105;27;20402;-82
2022/04/04 08:40:12;;;;;;;4.95;2.75;;;6.10;99.90;;;;;;5130366;27;20051;-83
2022/04/04 08:42:39;;;;;;;4.45;2.70;;;6.20;99.90;;;;;;5093706;27;20054;-83
2022/04/04 08:45:05;;;;;;;5.60;2.42;;;6.20;99.90;;;;;;5129858;27;20082;-82
2022/04/04 08:47:33;;;;;;;5.05;2.00;;;6.30;99.90;;;;;;5094221;27;20505;-82
2022/04/04 08:50:00;;;;;;;3.08;1.70;;;6.20;99.90;;;;;;5128870;27;20035;-82
2022/04/04 08:52:27;;;;;;;4.28;1.73;;;6.30;99.90;;;;;;5111170;27;20047;-83
2022/04/04 08:54:54;;;;;;;3.15;1.70;;;6.30;99.90;;;;;;5128457;27;20123;-82
2022/04/04 08:57:19;;;;;;;2.08;1.42;;;6.40;99.90;;;;;;5111348;27;20051;-81
2022/04/04 08:59:46;;;;;;;3.20;1.50;;;6.40;99.90;;;;;;5129038;27;20051;-81
2022/04/04 09:02:13;;;;;;;4.35;1.38;;;6.40;99.90;;;;;;5111227;27;20074;-83
2022/04/04 09:04:40;;;;;;;4.35;1.40;;;7.90;99.90;;;;;;5111280;27;20043;-81
2022/04/04 09:07:10;;;;;;;4.30;1.58;;;6.40;99.90;;;;;;5128759;27;20043;-82
2022/04/04 09:09:49;;;;;;;4.38;1.30;;;6.50;99.90;;;;;;5129930;27;20046;-83
2022/04/04 09:12:20;;;;;;;3.15;1.23;;;6.50;99.90;;;;;;5093055;27;20076;-81
2022/04/04 09:14:54;;;;;;;3.35;1.50;;;6.50;99.90;;;;;;5130145;27;20041;-82
2022/04/04 09:17:32;;;;;;;4.03;1.25;;;6.50;99.90;;;;;;5111756;27;20057;-82
2022/04/04 09:19:58;;;;;;;5.43;1.42;;;6.50;99.90;;;;;;5109522;27;20118;-83
2022/04/04 09:22:25;;;;;;;3.85;1.60;;;8.00;99.90;;;;;;5094293;27;20043;-82
2022/04/04 09:24:59;;;;;;;2.65;1.38;;;6.60;99.90;;;;;;5128021;27;20070;-82
2022/04/04 09:27:28;;;;;;;3.90;1.55;;;6.60;99.90;;;;;;5129599;27;20069;-81
2022/04/04 09:29:59;;;;;;;8.85;1.40;;;6.60;99.90;;;;;;5128739;27;20035;-82
2022/04/04 09:32:39;;;;;;;7.15;1.27;;;6.60;99.90;;;;;;5128677;27;20047;-82
2022/04/04 09:35:13;;;;;;;1.40;0.95;;;6.60;99.90;;;;;;5129347;27;20043;-83
2022/04/04 09:37:40;;;;;;;2.42;0.90;;;6.60;99.90;;;;;;5127596;27;20574;-83
2022/04/04 09:40:06;;;;;;;4.85;1.50;;;6.70;99.90;;;;;;5129094;27;21020;-82
2022/04/04 09:42:32;;;;;;;1.85;0.93;;;6.70;99.90;;;;;;5128260;27;20039;-83
2022/04/04 09:45:13;;;;;;;2.47;1.05;;;6.70;99.90;;;;;;5128746;27;20046;-83
2022/04/04 09:48:11;;;;;;;2.42;1.42;;;6.80;99.90;;;;;;5128608;27;20035;-82
2022/04/04 09:50:49;;;;;;;4.97;1.20;;;6.80;99.90;;;;;;5127496;27;20043;-84
2022/04/04 09:53:19;;;;;;;3.42;1.10;;;6.80;99.90;;;;;;5128802;27;20446;-83
2022/04/04 09:55:55;;;;;;;3.10;1.23;;;8.20;99.90;;;;;;5128189;27;20062;-83
2022/04/04 09:58:25;;;;;;;3.15;1.23;;;8.00;99.90;;;;;;5127762;27;20043;-82
2022/04/04 10:00:52;;;;;;;2.50;1.35;;;6.90;99.90;;;;;;5110301;27;20051;-80
2022/04/04 10:03:19;;;;;;;1.65;0.80;;;8.20;99.90;;;;;;5127548;27;20035;-80
2022/04/04 10:05:51;;;;;;;1.80;0.98;;;8.40;99.90;;;;;;5110358;27;20051;-80
2022/04/04 10:08:17;;;;;;;3.85;1.20;;;6.90;99.90;;;;;;5128153;27;20398;-81
2022/04/04 10:10:44;;;;;;;4.47;1.20;;;6.90;99.90;;;;;;5128664;27;20043;-81
2022/04/04 10:13:14;;;;;;;4.05;1.15;;;6.90;99.90;;;;;;5128882;27;20395;-82
2022/04/04 10:15:41;;;;;;;4.15;1.00;;;6.90;99.90;;;;;;5127231;27;20073;-81
2022/04/04 10:18:07;;;;;;;7.30;0.93;;;6.90;99.90;;;;;;5110756;27;20470;-81
2022/04/04 10:20:34;;;;;;;3.13;1.05;;;5.80;99.90;;;;;;5127101;27;20089;-81
2022/04/04 10:23:03;;;;;;;3.45;1.40;;;7.20;99.90;;;;;;5128320;27;20067;-81
2022/04/04 10:25:32;;;;;;;2.33;0.85;;;7.90;99.90;;;;;;5128043;27;20420;-81
2022/04/04 10:28:01;;;;;;;2.38;1.05;;;7.00;99.90;;;;;;5109336;27;20043;-81
2022/04/04 10:30:32;;;;;;;3.22;0.85;;;7.60;99.90;;;;;;5128167;27;20107;-80
2022/04/04 10:32:59;;;;;;;5.05;1.25;;;7.00;99.90;;;;;;5127138;27;20095;-81
2022/04/04 10:35:27;;;;;;;5.60;1.13;;;7.00;99.90;;;;;;5092871;27;20042;-81
2022/04/04 10:37:57;;;;;;;3.47;1.35;;;7.90;99.90;;;;;;5127359;27;20050;-81
2022/04/04 10:40:28;;;;;;;2.53;0.80;;;7.00;99.90;;;;;;5128387;27;20035;-82
2022/04/04 10:43:12;;;;;;;1.63;0.60;;;7.00;99.90;;;;;;5109884;27;20041;-79
2022/04/04 10:45:56;;;;;;;2.60;0.73;;;7.10;99.90;;;;;;5107467;27;20502;-79
2022/04/04 10:48:30;;;;;;;2.72;0.80;;;7.10;99.90;;;;;;5128673;27;20050;-79
2022/04/04 10:51:19;;;;;;;1.77;0.57;;;7.10;99.90;;;;;;5127622;27;20620;-79
2022/04/04 10:53:49;;;;;;;0.50;0.43;;;7.10;99.90;;;;;;5127422;27;20086;-80
2022/04/04 10:56:23;;;;;;;2.45;0.70;;;7.10;99.90;;;;;;5128055;27;20058;-80
2022/04/04 10:58:52;;;;;;;1.80;0.60;;;7.20;99.90;;;;;;5108945;27;20043;-81
2022/04/04 11:01:22;;;;;;;2.90;0.40;;;7.20;99.90;;;;;;5092980;28;20038;-82
2022/04/04 11:03:51;;;;;;;2.40;0.80;;;7.20;99.90;;;;;;5075616;28;20047;-81
2022/04/04 11:09:18;;;;;;;2.67;0.65;;;7.20;99.90;;;;;;5109969;28;20138;-82
2022/04/04 11:12:14;;;;;;;1.02;0.47;;;7.30;99.90;;;;;;5108619;28;20043;-83
2022/04/04 11:14:47;;;;;;;1.25;0.32;;;7.30;99.90;;;;;;5128474;28;20077;-83
2022/04/04 11:17:23;;;;;;;1.85;0.57;;;7.30;99.90;;;;;;5092441;28;20081;-83
2022/04/04 11:20:00;;;;;;;1.05;0.38;;;8.80;99.90;;;;;;5108659;28;20557;-82
2022/04/04 11:22:28;;;;;;;0.75;0.40;;;7.40;99.90;;;;;;5109930;28;20224;-82
2022/04/04 11:25:05;;;;;;;2.70;0.60;;;7.40;99.90;;;;;;5091786;28;20051;-82
2022/04/04 11:27:36;;;;;;;0.82;0.45;;;7.40;99.90;;;;;;5109524;28;20413;-82
2022/04/04 11:30:10;;;;;;;1.00;0.47;;;7.40;99.90;;;;;;5128470;28;20089;-82
2022/04/04 11:32:40;;;;;;;1.17;0.45;;;7.50;99.90;;;;;;5126646;28;20050;-82
2022/04/04 11:35:15;;;;;;;0.88;0.20;;;8.10;99.90;;;;;;5109907;28;20066;-82
2022/04/04 11:37:54;;;;;;;2.03;0.68;;;7.50;99.90;;;;;;5108272;28;20043;-82
2022/04/04 11:40:34;;;;;;;0.52;0.22;;;7.50;99.90;;;;;;5128288;28;20122;-82
2022/04/04 11:43:07;;;;;;;1.35;0.40;;;7.60;99.90;;;;;;5128109;28;20035;-82
2022/04/04 11:45:36;;;;;;;1.27;0.38;;;7.60;99.90;;;;;;5126957;28;20035;-82
2022/04/04 11:48:23;;;;;;;1.10;0.22;;;8.20;99.90;;;;;;5128186;28;20054;-82
2022/04/04 11:50:51;;;;;;;1.92;0.30;;;7.70;99.90;;;;;;5094396;28;20105;-81
2022/04/04 11:53:25;;;;;;;0.32;0.25;;;7.70;99.90;;;;;;5127763;28;20070;-81
2022/04/04 11:55:52;;;;;;;0.40;0.20;;;8.30;99.90;;;;;;5109125;28;20050;-82
2022/04/04 11:58:20;;;;;;;1.80;0.40;;;7.70;99.90;;;;;;5126984;28;20047;-82
2022/04/04 12:00:56;;;;;;;1.27;0.22;;;7.80;99.90;;;;;;5092182;27;20092;-82
2022/04/04 12:03:23;;;;;;;0.50;0.30;;;7.80;99.90;;;;;;5108192;28;20054;-81
2022/04/04 12:05:50;;;;;;;2.88;0.32;;;8.50;99.90;;;;;;5109602;28;20078;-82
2022/04/04 12:08:17;;;;;;;1.02;0.40;;;7.80;99.90;;;;;;5094233;27;20039;-82
2022/04/04 12:10:47;;;;;;;1.90;0.60;;;7.90;99.90;;;;;;5112960;27;20050;-82
2022/04/04 12:13:23;;;;;;;2.58;0.30;;;7.90;99.90;;;;;;5096359;27;20043;-81
2022/04/04 12:15:50;;;;;;;0.50;0.30;;;7.90;99.90;;;;;;5111924;27;20054;-79
2022/04/04 12:18:20;;;;;;;0.63;0.30;;;7.90;99.90;;;;;;5131821;27;20100;-79
2022/04/04 12:20:47;;;;;;;1.60;0.30;;;8.00;99.90;;;;;;5130604;27;20046;-79
2022/04/04 12:26:08;;;;;;;1.30;0.30;;;8.00;99.90;;;;;;5112516;27;20046;-79
2022/04/04 12:28:40;;;;;;;0.30;0.20;;;8.10;99.90;;;;;;5094305;27;20047;-78
2022/04/04 12:31:11;;;;;;;0.35;0.20;;;8.10;99.90;;;;;;5112869;27;20042;-78
2022/04/04 12:33:37;;;;;;;2.28;0.40;;;8.20;99.90;;;;;;5130870;27;20873;-78
2022/04/04 12:36:03;;;;;;;0.45;0.30;;;8.20;99.90;;;;;;5131348;27;20123;-78
2022/04/04 12:38:31;;;;;;;0.60;0.40;;;8.20;99.90;;;;;;5130979;27;20097;-78
2022/04/04 12:41:03;;;;;;;0.82;0.40;;;8.20;99.90;;;;;;5111840;27;20410;-78
2022/04/04 12:43:29;;;;;;;0.68;0.38;;;8.20;99.90;;;;;;5131035;27;20153;-78
2022/04/04 12:45:54;;;;;;;1.92;0.40;;;8.30;99.90;;;;;;5129789;27;20070;-78
2022/04/04 12:48:21;;;;;;;1.05;0.50;;;8.30;99.90;;;;;;5131228;27;20039;-79
2022/04/04 12:50:48;;;;;;;1.13;0.50;;;8.40;99.90;;;;;;5130374;27;20047;-80
2022/04/04 12:53:15;;;;;;;0.40;0.30;;;8.40;99.90;;;;;;5130397;27;20424;-78
2022/04/04 12:55:44;;;;;;;1.80;0.73;;;8.50;99.90;;;;;;5112401;27;20047;-78
2022/04/04 12:58:20;;;;;;;1.17;0.50;;;8.50;99.90;;;;;;5129565;27;20043;-78
2022/04/04 13:00:47;;;;;;;2.45;0.60;;;8.50;99.90;;;;;;5112297;27;20099;-79
2022/04/04 13:03:22;;;;;;;0.77;0.40;;;8.50;99.90;;;;;;5129882;27;20038;-78
2022/04/04 13:05:50;;;;;;;1.02;0.52;;;8.60;99.90;;;;;;5112349;27;20047;-80